Time;durP1;ratioP1;P1;durP2;ratioP2;P2;SDS_P1;SDS_P2;PMS_P1;PMS_P2;Temp;Humidity;BMP_temperature;BMP_pressure;BME280_temperature;BME280_humidity;BME280_pressure;Samples;Min_cycle;Max_cycle;Signal;HPM_P1;HPM_P2
2023/11/07 00:01:41;;;;;;;0.88;0.40;;;7.20;99.90;;;;;;5030257;28;19925;-64
2023/11/07 00:04:13;;;;;;;0.38;0.30;;;7.10;99.90;;;;;;5027750;28;20115;-64
2023/11/07 00:06:40;;;;;;;1.98;0.40;;;7.10;99.90;;;;;;5033532;28;20052;-64
2023/11/07 00:09:12;;;;;;;0.50;0.30;;;7.00;99.90;;;;;;5032410;28;20148;-65
2023/11/07 00:11:44;;;;;;;0.40;0.40;;;7.00;99.90;;;;;;5034678;28;20045;-63
2023/11/07 00:14:17;;;;;;;0.30;0.25;;;7.00;99.90;;;;;;5032886;28;20045;-65
2023/11/07 00:16:50;;;;;;;0.43;0.40;;;7.00;99.90;;;;;;5037270;28;20055;-64
2023/11/07 00:19:17;;;;;;;0.50;0.30;;;6.90;99.90;;;;;;5030529;28;20056;-64
2023/11/07 00:21:49;;;;;;;0.82;0.30;;;6.90;99.90;;;;;;5030949;28;20052;-65
2023/11/07 00:24:15;;;;;;;1.00;0.45;;;6.90;99.90;;;;;;5034130;28;20485;-65
2023/11/07 00:26:48;;;;;;;0.45;0.32;;;6.90;99.90;;;;;;5040026;28;20043;-65
2023/11/07 00:29:22;;;;;;;0.20;0.20;;;6.90;99.90;;;;;;5022068;28;20084;-64
2023/11/07 00:31:53;;;;;;;2.67;0.30;;;6.90;99.90;;;;;;5033755;28;20041;-64
2023/11/07 00:34:24;;;;;;;0.65;0.50;;;6.90;99.90;;;;;;5041226;28;20049;-64
2023/11/07 00:36:56;;;;;;;0.35;0.20;;;6.90;99.90;;;;;;5036697;28;20103;-64
2023/11/07 00:39:23;;;;;;;0.47;0.28;;;7.00;99.90;;;;;;5025757;28;20124;-64
2023/11/07 00:41:56;;;;;;;0.45;0.30;;;7.00;99.90;;;;;;5033494;28;20417;-64
2023/11/07 00:44:23;;;;;;;0.32;0.20;;;7.00;99.90;;;;;;5035802;28;20104;-65
2023/11/07 00:46:55;;;;;;;0.77;0.30;;;7.00;99.90;;;;;;5033922;28;20064;-64
2023/11/07 00:49:22;;;;;;;1.27;0.40;;;6.90;99.90;;;;;;5040834;28;20124;-64
2023/11/07 00:51:53;;;;;;;0.50;0.30;;;6.90;99.90;;;;;;5033480;28;20056;-64
2023/11/07 00:54:20;;;;;;;0.20;0.20;;;6.90;99.90;;;;;;5045449;28;20052;-64
2023/11/07 00:56:47;;;;;;;1.20;0.30;;;6.90;99.90;;;;;;5034284;28;20116;-64
2023/11/07 00:59:19;;;;;;;1.88;0.40;;;6.90;99.90;;;;;;5041399;28;20053;-64
2023/11/07 01:01:51;;;;;;;4.88;0.30;;;6.90;99.90;;;;;;5031147;28;20049;-64
2023/11/07 01:04:23;;;;;;;0.20;0.20;;;6.90;99.90;;;;;;5029655;28;20100;-64
2023/11/07 01:06:56;;;;;;;0.65;0.40;;;6.80;99.90;;;;;;5043623;28;20051;-64
2023/11/07 01:09:28;;;;;;;0.30;0.20;;;6.90;99.90;;;;;;5020967;28;20044;-64
2023/11/07 01:12:00;;;;;;;0.20;0.20;;;6.90;99.90;;;;;;5027821;28;20053;-64
2023/11/07 01:14:26;;;;;;;0.90;0.20;;;6.90;99.90;;;;;;5037364;28;20040;-64
2023/11/07 01:16:58;;;;;;;2.03;0.90;;;6.90;99.90;;;;;;5038598;28;20045;-63
2023/11/07 01:19:30;;;;;;;1.33;0.32;;;6.90;99.90;;;;;;5034283;28;20394;-64
2023/11/07 01:22:04;;;;;;;0.75;0.20;;;6.90;99.90;;;;;;5039352;28;20512;-64
2023/11/07 01:24:31;;;;;;;0.40;0.30;;;6.80;99.90;;;;;;5041455;28;20045;-64
2023/11/07 01:26:58;;;;;;;0.40;0.20;;;6.80;99.90;;;;;;5042480;28;20041;-64
2023/11/07 01:29:29;;;;;;;0.80;0.30;;;6.80;99.90;;;;;;5027598;28;20044;-64
2023/11/07 01:32:02;;;;;;;0.68;0.30;;;6.80;99.90;;;;;;5033627;28;20049;-64
2023/11/07 01:34:34;;;;;;;0.55;0.30;;;6.70;99.90;;;;;;5034248;28;20505;-63
2023/11/07 01:37:01;;;;;;;0.32;0.25;;;6.80;99.90;;;;;;5036257;28;20128;-64
2023/11/07 01:39:34;;;;;;;0.82;0.30;;;6.80;99.90;;;;;;5032554;28;20042;-64
2023/11/07 01:42:08;;;;;;;0.47;0.25;;;6.80;99.90;;;;;;5042148;28;20064;-64
2023/11/07 01:44:48;;;;;;;0.15;0.15;;;6.80;99.90;;;;;;5043924;28;20049;-64
2023/11/07 01:47:24;;;;;;;0.32;0.20;;;6.70;99.90;;;;;;5034877;28;20052;-65
2023/11/07 01:49:57;;;;;;;0.40;0.22;;;6.70;99.90;;;;;;5039687;28;20045;-64
2023/11/07 01:52:29;;;;;;;0.30;0.22;;;6.80;99.90;;;;;;5023510;28;20054;-64
2023/11/07 01:54:58;;;;;;;0.57;0.20;;;6.70;99.90;;;;;;5031524;28;20049;-65
2023/11/07 01:57:30;;;;;;;0.60;0.43;;;6.70;99.90;;;;;;5041313;28;20042;-64
2023/11/07 02:00:12;;;;;;;0.43;0.20;;;6.70;99.90;;;;;;5044205;28;20049;-64
2023/11/07 02:02:44;;;;;;;0.20;0.20;;;6.70;99.90;;;;;;5020341;28;20142;-64
2023/11/07 02:05:16;;;;;;;1.30;0.43;;;6.60;99.90;;;;;;5016272;28;20053;-64
2023/11/07 02:07:44;;;;;;;1.20;0.65;;;6.60;99.90;;;;;;5031467;28;20030;-64
2023/11/07 02:10:17;;;;;;;0.75;0.50;;;6.60;99.90;;;;;;5025845;28;20046;-64
2023/11/07 02:12:49;;;;;;;1.90;0.40;;;6.60;99.90;;;;;;5032742;28;20476;-64
2023/11/07 02:15:23;;;;;;;0.30;0.20;;;6.50;99.90;;;;;;5006378;28;20053;-64
2023/11/07 02:17:54;;;;;;;;;;;6.40;99.90;;;;;;5026794;28;20060;-64
2023/11/07 02:20:28;;;;;;;0.70;0.30;;;6.40;99.90;;;;;;5043342;28;19921;-64
2023/11/07 02:23:20;;;;;;;1.20;0.60;;;6.40;99.90;;;;;;5043817;28;20413;-64
2023/11/07 02:25:52;;;;;;;0.47;0.30;;;6.30;99.90;;;;;;5036879;28;20138;-64
2023/11/07 02:28:24;;;;;;;0.80;0.40;;;6.30;99.90;;;;;;5038700;28;20870;-64
2023/11/07 02:30:51;;;;;;;1.80;0.40;;;6.30;99.90;;;;;;5031916;28;20436;-64
2023/11/07 02:33:23;;;;;;;0.50;0.30;;;6.30;99.90;;;;;;5031889;28;20076;-64
2023/11/07 02:35:50;;;;;;;0.38;0.30;;;6.20;99.90;;;;;;5033729;28;20057;-64
2023/11/07 02:38:22;;;;;;;0.40;0.20;;;6.20;99.90;;;;;;5026235;28;20063;-64
2023/11/07 02:40:54;;;;;;;0.52;0.32;;;6.20;99.90;;;;;;5031888;28;20049;-64
2023/11/07 02:43:26;;;;;;;0.57;0.30;;;6.20;99.90;;;;;;5023274;28;20059;-64
2023/11/07 02:45:58;;;;;;;0.30;0.20;;;6.20;99.90;;;;;;5037502;28;20046;-64
2023/11/07 02:48:30;;;;;;;0.65;0.30;;;6.10;99.90;;;;;;5038751;28;20153;-64
2023/11/07 02:51:03;;;;;;;0.85;0.30;;;6.10;99.90;;;;;;5017753;28;20046;-65
2023/11/07 02:53:29;;;;;;;1.17;0.30;;;6.10;99.90;;;;;;5034015;28;20116;-64
2023/11/07 02:55:56;;;;;;;0.20;0.20;;;6.00;99.90;;;;;;5034486;28;20516;-64
2023/11/07 02:58:29;;;;;;;0.38;0.22;;;6.00;99.90;;;;;;5039338;28;20044;-64
2023/11/07 03:00:56;;;;;;;0.45;0.30;;;6.00;99.90;;;;;;5010032;28;20706;-64
2023/11/07 03:03:28;;;;;;;0.68;0.40;;;6.00;99.90;;;;;;5028442;28;20807;-64
2023/11/07 03:06:00;;;;;;;1.38;0.43;;;6.00;99.90;;;;;;5038693;28;20045;-64
2023/11/07 03:08:33;;;;;;;1.02;0.50;;;5.90;99.90;;;;;;5045743;28;20048;-65
2023/11/07 03:11:05;;;;;;;0.40;0.30;;;5.90;99.90;;;;;;5036765;28;20073;-64
2023/11/07 03:13:37;;;;;;;1.13;0.35;;;5.90;99.90;;;;;;5029808;28;20042;-64
2023/11/07 03:16:10;;;;;;;0.60;0.30;;;5.90;99.90;;;;;;5027343;28;20053;-65
2023/11/07 03:18:42;;;;;;;0.90;0.55;;;5.90;99.90;;;;;;5024971;28;20033;-64
2023/11/07 03:21:14;;;;;;;3.28;0.50;;;6.00;99.90;;;;;;5032994;28;20041;-64
2023/11/07 03:23:45;;;;;;;0.47;0.35;;;5.90;99.90;;;;;;5038876;28;20057;-65
2023/11/07 03:26:17;;;;;;;0.93;0.45;;;5.80;99.90;;;;;;5034526;28;20041;-64
2023/11/07 03:28:44;;;;;;;1.05;0.50;;;5.80;99.90;;;;;;5035185;28;20051;-63
2023/11/07 03:31:16;;;;;;;0.65;0.50;;;5.70;99.90;;;;;;5029854;28;20065;-64
2023/11/07 03:33:48;;;;;;;0.80;0.38;;;5.70;99.90;;;;;;5033317;28;20033;-64
2023/11/07 03:36:19;;;;;;;0.40;0.30;;;5.70;99.90;;;;;;5029281;28;20042;-64
2023/11/07 03:38:51;;;;;;;1.00;0.38;;;5.70;99.90;;;;;;5031635;28;20457;-64
2023/11/07 03:41:24;;;;;;;0.28;0.28;;;5.70;99.90;;;;;;5029379;28;20052;-64
2023/11/07 03:43:56;;;;;;;0.63;0.40;;;5.70;99.90;;;;;;5039422;28;20049;-64
2023/11/07 03:46:28;;;;;;;0.77;0.40;;;5.60;99.90;;;;;;5028227;28;20041;-64
2023/11/07 03:49:00;;;;;;;0.60;0.30;;;5.60;99.90;;;;;;5035807;28;20045;-64
2023/11/07 03:51:32;;;;;;;0.35;0.25;;;5.60;99.90;;;;;;5032683;28;20052;-64
2023/11/07 03:54:04;;;;;;;1.10;0.30;;;5.60;99.90;;;;;;5035954;28;20049;-64
2023/11/07 03:56:36;;;;;;;1.55;0.50;;;5.50;99.90;;;;;;5037396;28;20111;-64
2023/11/07 03:59:08;;;;;;;0.95;0.77;;;5.60;99.90;;;;;;5036108;28;20417;-65
2023/11/07 04:01:39;;;;;;;1.48;0.20;;;5.60;99.90;;;;;;5029248;28;20092;-64
2023/11/07 04:04:06;;;;;;;0.90;0.75;;;5.60;99.90;;;;;;5031329;28;20485;-64
2023/11/07 04:06:38;;;;;;;0.52;0.40;;;5.70;99.90;;;;;;5027170;28;20152;-64
2023/11/07 04:09:10;;;;;;;0.45;0.20;;;5.70;99.90;;;;;;5012942;28;20576;-64
2023/11/07 04:11:37;;;;;;;0.80;0.60;;;5.70;99.90;;;;;;5026376;28;20038;-64
2023/11/07 04:14:04;;;;;;;1.80;0.50;;;5.90;99.90;;;;;;5030903;28;20516;-64
2023/11/07 04:16:36;;;;;;;0.50;0.28;;;5.90;99.90;;;;;;5038087;28;20162;-64
2023/11/07 04:19:08;;;;;;;1.13;0.30;;;6.00;99.90;;;;;;5037594;28;20041;-64
2023/11/07 04:21:40;;;;;;;0.57;0.52;;;6.00;99.90;;;;;;5034384;28;20437;-64
2023/11/07 04:24:13;;;;;;;0.32;0.30;;;6.10;99.90;;;;;;5036679;28;20064;-63
2023/11/07 04:26:45;;;;;;;0.32;0.28;;;6.10;99.90;;;;;;5034824;28;20037;-65
2023/11/07 04:29:17;;;;;;;3.33;0.30;;;6.10;99.90;;;;;;5034705;28;20758;-64
2023/11/07 04:31:49;;;;;;;1.98;0.32;;;6.10;99.90;;;;;;5033443;28;20040;-64
2023/11/07 04:34:21;;;;;;;0.60;0.30;;;6.10;99.90;;;;;;5023791;28;20069;-64
2023/11/07 04:36:56;;;;;;;0.70;0.60;;;6.10;99.90;;;;;;5028072;28;20045;-64
2023/11/07 04:39:28;;;;;;;1.35;0.88;;;6.00;99.90;;;;;;5028266;28;20037;-64
2023/11/07 04:42:01;;;;;;;2.08;0.32;;;6.00;99.90;;;;;;5034600;28;20072;-64
2023/11/07 04:44:33;;;;;;;0.85;0.47;;;6.00;99.90;;;;;;5028759;28;20128;-64
2023/11/07 04:47:05;;;;;;;0.70;0.70;;;6.10;99.90;;;;;;5035075;28;20469;-64
2023/11/07 04:49:38;;;;;;;0.88;0.40;;;6.00;99.90;;;;;;5029981;28;20133;-64
2023/11/07 04:52:11;;;;;;;1.20;0.40;;;6.10;99.90;;;;;;5036639;28;20037;-64
2023/11/07 04:54:43;;;;;;;0.50;0.30;;;6.10;99.90;;;;;;5036891;28;20584;-64
2023/11/07 04:57:15;;;;;;;0.47;0.40;;;6.20;99.90;;;;;;5035902;28;20100;-64
2023/11/07 04:59:47;;;;;;;0.30;0.30;;;6.10;99.90;;;;;;5032192;28;20045;-64
2023/11/07 05:02:19;;;;;;;0.95;0.50;;;6.10;99.90;;;;;;5028503;28;20041;-64
2023/11/07 05:04:52;;;;;;;1.00;0.30;;;6.00;99.90;;;;;;5042569;28;20530;-64
2023/11/07 05:07:24;;;;;;;2.60;0.47;;;6.00;99.90;;;;;;5029155;28;20042;-65
2023/11/07 05:09:58;;;;;;;0.60;0.35;;;6.00;99.90;;;;;;5026098;28;20038;-68
2023/11/07 05:12:30;;;;;;;0.55;0.40;;;5.90;99.90;;;;;;5028242;28;20048;-65
2023/11/07 05:15:03;;;;;;;0.75;0.47;;;5.80;99.90;;;;;;5032583;28;20136;-64
2023/11/07 05:17:35;;;;;;;0.95;0.38;;;5.80;99.90;;;;;;5036129;28;20037;-65
2023/11/07 05:20:10;;;;;;;0.80;0.40;;;5.70;99.90;;;;;;5018052;28;20056;-64
2023/11/07 05:22:37;;;;;;;0.85;0.50;;;5.70;99.90;;;;;;5034029;28;20548;-64
2023/11/07 05:25:09;;;;;;;0.70;0.40;;;5.70;99.90;;;;;;5031260;28;20497;-64
2023/11/07 05:27:41;;;;;;;0.40;0.30;;;5.80;99.90;;;;;;5034661;28;20037;-64
2023/11/07 05:30:13;;;;;;;2.15;0.47;;;5.80;99.90;;;;;;5032651;28;20047;-65
2023/11/07 05:32:47;;;;;;;1.10;0.45;;;5.80;99.90;;;;;;5028902;28;20049;-65
2023/11/07 05:35:17;;;;;;;0.43;0.30;;;5.80;99.90;;;;;;5031155;28;20056;-65
2023/11/07 05:37:49;;;;;;;0.73;0.40;;;5.80;99.90;;;;;;5037352;28;20104;-65
2023/11/07 05:40:19;;;;;;;0.82;0.55;;;5.80;99.90;;;;;;5030797;28;20048;-65
2023/11/07 05:42:52;;;;;;;0.50;0.35;;;5.90;99.90;;;;;;5027251;28;20068;-64
2023/11/07 05:45:24;;;;;;;0.50;0.40;;;6.00;99.90;;;;;;5029133;28;21712;-64
2023/11/07 05:47:55;;;;;;;1.13;0.50;;;6.00;99.90;;;;;;5032281;28;20116;-64
2023/11/07 05:50:27;;;;;;;5.22;0.43;;;6.10;99.90;;;;;;5035048;28;20136;-65
2023/11/07 05:52:59;;;;;;;4.97;4.47;;;6.30;99.90;;;;;;5031913;28;20050;-64
2023/11/07 05:55:26;;;;;;;0.50;0.43;;;6.50;99.90;;;;;;5034745;28;20029;-64
2023/11/07 05:57:58;;;;;;;1.85;0.40;;;6.60;99.90;;;;;;5034598;28;20083;-65
2023/11/07 06:00:29;;;;;;;0.85;0.40;;;6.70;99.90;;;;;;5027594;28;20556;-64
2023/11/07 06:03:02;;;;;;;0.80;0.30;;;6.70;99.90;;;;;;5029252;28;20044;-65
2023/11/07 06:05:34;;;;;;;0.47;0.40;;;6.80;99.90;;;;;;5027168;28;20041;-65
2023/11/07 06:08:01;;;;;;;2.97;0.40;;;6.90;99.90;;;;;;5027399;28;20041;-64
2023/11/07 06:10:33;;;;;;;0.38;0.30;;;7.10;99.90;;;;;;5027628;28;20142;-64
2023/11/07 06:13:05;;;;;;;0.27;0.20;;;7.20;99.90;;;;;;5018570;28;20534;-64
2023/11/07 06:15:37;;;;;;;1.33;0.75;;;7.30;99.90;;;;;;5035968;28;20096;-64
2023/11/07 06:18:10;;;;;;;0.40;0.30;;;7.40;99.90;;;;;;5033275;28;20112;-64
2023/11/07 06:20:42;;;;;;;2.47;0.93;;;7.40;99.90;;;;;;5031292;28;20061;-64
2023/11/07 06:23:14;;;;;;;0.63;0.40;;;7.40;99.90;;;;;;5005602;28;20112;-65
2023/11/07 06:25:47;;;;;;;0.40;0.25;;;7.40;99.90;;;;;;5037295;28;20042;-64
2023/11/07 06:28:19;;;;;;;1.42;0.40;;;7.30;99.90;;;;;;5040756;28;20056;-64
2023/11/07 06:30:46;;;;;;;1.33;0.60;;;7.20;99.90;;;;;;5034752;28;20029;-65
2023/11/07 06:33:19;;;;;;;0.75;0.40;;;7.10;99.90;;;;;;5029467;28;20623;-64
2023/11/07 06:35:51;;;;;;;0.85;0.73;;;6.90;99.90;;;;;;5030221;28;20053;-64
2023/11/07 06:38:20;;;;;;;1.98;0.63;;;6.80;99.90;;;;;;5038949;28;20041;-64
2023/11/07 06:40:52;;;;;;;0.65;0.52;;;6.70;99.90;;;;;;5027795;28;20068;-65
2023/11/07 06:43:25;;;;;;;2.33;0.50;;;6.70;99.90;;;;;;5024715;28;20041;-65
2023/11/07 06:45:52;;;;;;;1.05;0.63;;;6.70;99.90;;;;;;5036187;28;20038;-65
2023/11/07 06:48:26;;;;;;;1.30;0.50;;;6.70;99.90;;;;;;5030791;28;20393;-65
2023/11/07 06:50:58;;;;;;;;;;;6.70;99.90;;;;;;5037769;28;20046;-65
2023/11/07 06:53:30;;;;;;;2.28;1.15;;;6.60;99.90;;;;;;5028033;28;19928;-65
2023/11/07 06:56:02;;;;;;;0.75;0.40;;;6.60;99.90;;;;;;5032487;28;20045;-64
2023/11/07 06:58:29;;;;;;;2.67;0.52;;;6.70;99.90;;;;;;5027409;28;20045;-65
2023/11/07 07:01:03;;;;;;;1.15;0.63;;;6.80;99.90;;;;;;5021355;28;20413;-64
2023/11/07 07:03:35;;;;;;;0.82;0.50;;;6.80;99.90;;;;;;5033624;28;20038;-65
2023/11/07 07:06:02;;;;;;;1.48;0.50;;;6.90;99.90;;;;;;5034569;28;20034;-64
2023/11/07 07:08:29;;;;;;;0.90;0.40;;;7.00;99.90;;;;;;5030411;28;20050;-65
2023/11/07 07:10:57;;;;;;;1.48;0.70;;;7.10;99.90;;;;;;5031827;28;20033;-64
2023/11/07 07:13:33;;;;;;;1.23;0.40;;;7.20;99.90;;;;;;5027804;28;20045;-64
2023/11/07 07:16:06;;;;;;;0.75;0.40;;;7.40;99.90;;;;;;5030287;28;20038;-64
2023/11/07 07:18:39;;;;;;;0.80;0.40;;;7.40;99.90;;;;;;5031271;28;20418;-64
2023/11/07 07:21:07;;;;;;;1.65;0.40;;;7.50;99.90;;;;;;5032284;28;20045;-64
2023/11/07 07:23:42;;;;;;;2.47;0.60;;;7.60;99.90;;;;;;5042617;28;20836;-64
2023/11/07 07:26:16;;;;;;;1.60;0.40;;;7.50;99.90;;;;;;5037371;28;20803;-64
2023/11/07 07:28:43;;;;;;;2.38;0.85;;;7.50;99.90;;;;;;5035167;28;20029;-64
2023/11/07 07:31:18;;;;;;;1.50;0.50;;;7.50;99.90;;;;;;5037006;28;20079;-64
2023/11/07 07:33:46;;;;;;;0.60;0.43;;;7.40;99.90;;;;;;5033520;28;20044;-64
2023/11/07 07:36:15;;;;;;;0.60;0.40;;;7.50;99.90;;;;;;5033057;28;20046;-64
2023/11/07 07:38:47;;;;;;;2.03;0.60;;;7.50;99.90;;;;;;5037001;28;20045;-64
2023/11/07 07:41:14;;;;;;;0.75;0.40;;;7.60;99.90;;;;;;5030398;28;20049;-65
2023/11/07 07:43:41;;;;;;;2.85;0.75;;;7.60;99.90;;;;;;5037443;28;20044;-64
2023/11/07 07:46:13;;;;;;;0.60;0.30;;;7.70;99.90;;;;;;5028580;28;20045;-64
2023/11/07 07:48:46;;;;;;;1.80;0.57;;;7.90;99.90;;;;;;5031426;28;20132;-63
2023/11/07 07:51:19;;;;;;;1.65;0.50;;;7.90;99.90;;;;;;5029125;28;20424;-64
2023/11/07 07:53:45;;;;;;;1.45;0.30;;;8.00;99.90;;;;;;5031361;28;20037;-64
2023/11/07 07:56:17;;;;;;;0.50;0.30;;;8.00;99.90;;;;;;5039622;28;20041;-64
2023/11/07 07:58:49;;;;;;;0.95;0.43;;;8.10;99.90;;;;;;5038947;28;20085;-64
2023/11/07 08:01:21;;;;;;;3.50;0.70;;;8.20;99.90;;;;;;5021353;28;20053;-64
2023/11/07 08:03:54;;;;;;;0.82;0.60;;;8.20;99.90;;;;;;5034151;28;20497;-64
2023/11/07 08:06:25;;;;;;;1.77;0.60;;;8.30;99.90;;;;;;5022098;28;20046;-64
2023/11/07 08:08:59;;;;;;;0.60;0.40;;;8.30;99.90;;;;;;5029092;28;20052;-65
2023/11/07 08:11:31;;;;;;;;;;;8.40;99.90;;;;;;5023631;28;20040;-64
2023/11/07 08:14:03;;;;;;;1.42;0.60;;;8.50;99.90;;;;;;5023144;28;19929;-64
2023/11/07 08:16:30;;;;;;;3.47;0.60;;;8.50;99.90;;;;;;5030618;28;20780;-64
2023/11/07 08:19:03;;;;;;;1.20;0.50;;;8.70;99.90;;;;;;5021727;28;20053;-64
2023/11/07 08:21:39;;;;;;;2.97;0.60;;;8.70;99.90;;;;;;5039880;28;20052;-64
2023/11/07 08:24:07;;;;;;;1.63;0.50;;;8.80;99.90;;;;;;5033724;28;20124;-65
2023/11/07 08:26:39;;;;;;;0.95;0.60;;;8.90;99.90;;;;;;5029879;28;20117;-64
2023/11/07 08:29:11;;;;;;;1.35;0.50;;;8.90;99.90;;;;;;5037000;28;20491;-64
2023/11/07 08:31:43;;;;;;;1.13;0.65;;;9.00;99.90;;;;;;5029159;28;20048;-64
2023/11/07 08:34:15;;;;;;;1.02;0.43;;;9.00;99.90;;;;;;5035101;28;20045;-64
2023/11/07 08:36:47;;;;;;;1.35;0.60;;;9.10;99.90;;;;;;5034650;28;20040;-64
2023/11/07 08:39:24;;;;;;;1.20;0.65;;;9.10;99.90;;;;;;5039506;28;20041;-64
2023/11/07 08:41:56;;;;;;;1.10;0.65;;;9.10;99.90;;;;;;5030510;28;20050;-64
2023/11/07 08:44:27;;;;;;;1.38;0.60;;;9.30;99.90;;;;;;5027311;28;20044;-64
2023/11/07 08:47:02;;;;;;;1.17;0.60;;;9.30;99.90;;;;;;5028101;28;20049;-64
2023/11/07 08:49:34;;;;;;;1.67;0.80;;;9.30;99.90;;;;;;5024525;28;20049;-64
2023/11/07 08:52:04;;;;;;;1.73;0.50;;;9.40;99.90;;;;;;5033061;28;20045;-64
2023/11/07 08:54:33;;;;;;;2.38;0.60;;;9.40;99.90;;;;;;5031199;28;20509;-64
2023/11/07 08:57:06;;;;;;;0.73;0.70;;;9.40;99.90;;;;;;5036984;28;20408;-64
2023/11/07 08:59:36;;;;;;;4.40;0.73;;;9.50;99.90;;;;;;5036007;28;20606;-64
2023/11/07 09:02:07;;;;;;;1.42;0.63;;;9.50;99.90;;;;;;5033046;28;20042;-64
2023/11/07 09:04:41;;;;;;;1.63;0.70;;;9.50;99.90;;;;;;5035882;28;20452;-64
2023/11/07 09:07:13;;;;;;;3.17;0.80;;;9.60;99.90;;;;;;5049319;28;20668;-65
2023/11/07 09:09:46;;;;;;;2.63;1.45;;;9.60;99.90;;;;;;5028541;28;20479;-64
2023/11/07 09:12:13;;;;;;;1.70;0.93;;;9.60;99.90;;;;;;5038965;28;20033;-64
2023/11/07 09:14:41;;;;;;;2.47;0.82;;;9.60;99.90;;;;;;5030666;28;20500;-64
2023/11/07 09:17:13;;;;;;;1.70;0.73;;;9.60;99.90;;;;;;5037131;28;20045;-64
2023/11/07 09:19:46;;;;;;;2.43;1.03;;;9.70;99.90;;;;;;5030794;28;20041;-64
2023/11/07 09:22:13;;;;;;;1.30;0.60;;;9.70;99.90;;;;;;5043879;28;20734;-65
2023/11/07 09:24:45;;;;;;;1.90;0.75;;;9.80;99.90;;;;;;5034859;28;20037;-64
2023/11/07 09:27:17;;;;;;;2.90;0.93;;;9.90;99.90;;;;;;5037600;28;20405;-64
2023/11/07 09:29:44;;;;;;;2.03;0.70;;;9.90;99.90;;;;;;5040628;28;20033;-64
2023/11/07 09:32:17;;;;;;;1.97;0.70;;;9.90;99.90;;;;;;5042216;28;20057;-64
2023/11/07 09:34:49;;;;;;;0.80;0.60;;;9.90;99.90;;;;;;5037965;28;20300;-64
2023/11/07 09:37:17;;;;;;;2.20;0.77;;;9.90;99.90;;;;;;5041608;28;20051;-64
2023/11/07 09:39:44;;;;;;;1.45;0.80;;;9.90;99.90;;;;;;5037270;28;20128;-64
2023/11/07 09:42:15;;;;;;;1.83;0.80;;;9.90;99.90;;;;;;5032557;28;20049;-66
2023/11/07 09:44:50;;;;;;;0.77;0.60;;;9.90;99.90;;;;;;5033915;28;20044;-64
2023/11/07 09:47:17;;;;;;;1.42;0.63;;;9.90;99.90;;;;;;5036688;28;20033;-64
2023/11/07 09:49:49;;;;;;;1.88;0.40;;;9.90;99.90;;;;;;5028326;28;20039;-65
2023/11/07 09:52:19;;;;;;;1.27;1.05;;;9.90;99.90;;;;;;5027731;28;20136;-64
2023/11/07 09:54:51;;;;;;;1.35;0.50;;;9.80;99.90;;;;;;5037840;28;20069;-64
2023/11/07 09:57:24;;;;;;;1.90;0.63;;;9.90;99.90;;;;;;5045905;28;20032;-64
2023/11/07 09:59:58;;;;;;;2.47;0.68;;;9.90;99.90;;;;;;5033597;28;20049;-64
2023/11/07 10:02:31;;;;;;;2.65;0.60;;;10.00;99.90;;;;;;5036675;28;20049;-64
2023/11/07 10:05:05;;;;;;;1.00;0.47;;;10.10;99.90;;;;;;5036396;28;20056;-64
2023/11/07 10:07:38;;;;;;;3.08;0.60;;;10.10;99.90;;;;;;5036386;28;20037;-64
2023/11/07 10:10:07;;;;;;;6.13;0.93;;;10.20;99.90;;;;;;5039423;28;20120;-64
2023/11/07 10:12:43;;;;;;;1.40;0.60;;;10.20;99.90;;;;;;5028450;28;20117;-64
2023/11/07 10:15:23;;;;;;;1.05;0.70;;;10.30;99.90;;;;;;5029179;28;20046;-64
2023/11/07 10:18:16;;;;;;;0.90;0.80;;;10.30;99.90;;;;;;5030116;28;20042;-64
2023/11/07 10:20:50;;;;;;;2.28;0.70;;;10.30;99.90;;;;;;5034645;28;20061;-65
2023/11/07 10:23:18;;;;;;;1.58;0.63;;;10.30;99.90;;;;;;5024899;28;20042;-64
2023/11/07 10:25:49;;;;;;;1.35;0.63;;;10.40;99.90;;;;;;5030856;28;20037;-64
2023/11/07 10:28:22;;;;;;;1.25;0.70;;;10.40;99.90;;;;;;5039008;28;20184;-65
2023/11/07 10:30:49;;;;;;;1.08;0.50;;;10.40;99.90;;;;;;5039247;28;20585;-64
2023/11/07 10:33:29;;;;;;;2.67;0.60;;;10.40;99.90;;;;;;5036772;28;20402;-64
2023/11/07 10:36:04;;;;;;;1.77;0.70;;;10.50;99.90;;;;;;5026340;28;20040;-64
2023/11/07 10:38:38;;;;;;;0.68;0.30;;;10.40;99.90;;;;;;5035522;28;20382;-64
2023/11/07 10:41:26;;;;;;;2.30;0.60;;;10.40;99.90;;;;;;5034596;28;20038;-64
2023/11/07 10:43:58;;;;;;;0.82;0.40;;;10.50;99.90;;;;;;5043540;28;20858;-64
2023/11/07 10:46:30;;;;;;;5.88;0.80;;;10.50;99.90;;;;;;5040702;28;20034;-63
2023/11/07 10:49:05;;;;;;;1.15;0.50;;;10.50;99.90;;;;;;5027409;28;20049;-64
2023/11/07 10:51:33;;;;;;;0.82;0.30;;;10.40;99.90;;;;;;5028779;28;20061;-64
2023/11/07 10:54:00;;;;;;;1.67;0.50;;;10.50;99.90;;;;;;5031171;28;20537;-64
2023/11/07 10:56:34;;;;;;;1.45;1.23;;;10.50;99.90;;;;;;5034995;28;20522;-64
2023/11/07 10:59:16;;;;;;;2.70;0.98;;;10.50;99.90;;;;;;5030814;28;20394;-64
2023/11/07 11:01:47;;;;;;;1.65;0.38;;;10.50;99.90;;;;;;5053371;28;20074;-64
2023/11/07 11:04:17;;;;;;;0.80;0.40;;;10.70;99.90;;;;;;5037062;28;20618;-64
2023/11/07 11:06:54;;;;;;;3.47;1.38;;;10.70;99.90;;;;;;5036407;28;20048;-64
2023/11/07 11:09:27;;;;;;;0.70;0.40;;;10.80;99.90;;;;;;5039045;28;20037;-64
2023/11/07 11:11:58;;;;;;;0.70;0.40;;;10.90;99.90;;;;;;5036728;28;20118;-64
2023/11/07 11:14:30;;;;;;;0.70;0.35;;;11.00;99.90;;;;;;5034199;28;20042;-64
2023/11/07 11:17:24;;;;;;;0.50;0.50;;;11.10;99.90;;;;;;5033381;28;20052;-64
2023/11/07 11:20:03;;;;;;;1.85;0.50;;;11.10;99.90;;;;;;5034106;28;20421;-64
2023/11/07 11:22:43;;;;;;;2.00;0.50;;;11.10;99.90;;;;;;5030480;28;20057;-64
2023/11/07 11:25:49;;;;;;;1.13;0.40;;;11.10;99.90;;;;;;5035603;28;20440;-64
2023/11/07 11:28:37;;;;;;;0.57;0.35;;;11.00;99.90;;;;;;5019262;28;20045;-64
2023/11/07 11:31:18;;;;;;;0.70;0.40;;;10.90;99.90;;;;;;5045127;28;20042;-65
2023/11/07 11:33:46;;;;;;;0.75;0.57;;;10.90;99.90;;;;;;5034422;28;20033;-64
2023/11/07 11:36:35;;;;;;;2.78;1.05;;;11.00;99.90;;;;;;5037937;28;20518;-64
2023/11/07 11:39:29;;;;;;;0.57;0.30;;;11.20;99.90;;;;;;5050614;28;20052;-64
2023/11/07 11:42:01;;;;;;;3.13;1.05;;;11.40;99.90;;;;;;5037396;28;20045;-64
2023/11/07 11:44:33;;;;;;;0.55;0.45;;;11.60;99.90;;;;;;5050204;28;20049;-64
2023/11/07 11:47:05;;;;;;;1.65;0.40;;;11.70;99.90;;;;;;5030677;28;20417;-64
2023/11/07 11:50:15;;;;;;;0.85;0.60;;;11.80;99.90;;;;;;5032326;28;20778;-64
2023/11/07 11:52:43;;;;;;;1.15;0.70;;;11.80;99.90;;;;;;5024276;28;20073;-64
2023/11/07 11:55:12;;;;;;;0.77;0.40;;;11.70;99.90;;;;;;5029371;28;20037;-64
2023/11/07 11:58:11;;;;;;;1.02;0.30;;;11.70;99.90;;;;;;5032711;28;20056;-64
2023/11/07 12:00:44;;;;;;;2.03;0.50;;;11.60;99.90;;;;;;5031545;28;20033;-64
2023/11/07 12:03:18;;;;;;;2.83;1.25;;;11.50;99.90;;;;;;5038724;28;20084;-64
2023/11/07 12:06:04;;;;;;;2.72;0.47;;;11.50;99.90;;;;;;5039728;28;20409;-64
2023/11/07 12:08:37;;;;;;;3.25;0.70;;;11.50;99.90;;;;;;5036579;28;20041;-64
2023/11/07 12:11:10;;;;;;;0.90;0.50;;;11.40;99.90;;;;;;5035530;28;20041;-64
2023/11/07 12:13:42;;;;;;;0.95;0.60;;;11.30;99.90;;;;;;5035634;28;20502;-64
2023/11/07 12:16:18;;;;;;;0.68;0.40;;;11.30;99.90;;;;;;5032457;28;20039;-64
2023/11/07 12:18:50;;;;;;;1.90;0.63;;;11.30;99.90;;;;;;5030295;28;20034;-64
2023/11/07 12:21:28;;;;;;;1.90;0.90;;;11.50;99.90;;;;;;5030575;28;20044;-64
2023/11/07 12:24:01;;;;;;;0.70;0.50;;;11.60;99.90;;;;;;5027489;28;20412;-64
2023/11/07 12:26:40;;;;;;;2.08;0.77;;;11.70;99.90;;;;;;5029946;28;20045;-64
2023/11/07 12:29:12;;;;;;;1.05;0.70;;;11.60;99.90;;;;;;5037428;28;20041;-66
2023/11/07 12:31:44;;;;;;;0.52;0.40;;;11.50;99.90;;;;;;5029458;28;20057;-64
2023/11/07 12:34:35;;;;;;;0.93;0.60;;;11.40;99.90;;;;;;5030124;28;20037;-64
2023/11/07 12:37:10;;;;;;;0.88;0.50;;;11.30;99.90;;;;;;5034082;28;20065;-64
2023/11/07 12:39:43;;;;;;;1.00;0.68;;;11.10;99.90;;;;;;5053010;28;20049;-65
2023/11/07 12:42:15;;;;;;;1.17;0.60;;;11.00;99.90;;;;;;5031755;28;20051;-64
2023/11/07 12:44:42;;;;;;;0.90;0.50;;;10.90;99.90;;;;;;5031864;28;20412;-64
2023/11/07 12:47:09;;;;;;;0.70;0.40;;;10.70;99.90;;;;;;5031139;28;20041;-64
2023/11/07 12:49:43;;;;;;;2.28;0.55;;;10.70;99.90;;;;;;5029786;28;20049;-64
2023/11/07 12:52:16;;;;;;;1.05;0.95;;;10.70;99.90;;;;;;5032729;28;20133;-64
2023/11/07 12:54:48;;;;;;;1.85;0.55;;;10.70;99.90;;;;;;5011083;28;20614;-64
2023/11/07 12:57:33;;;;;;;2.92;0.80;;;10.70;99.90;;;;;;5033252;28;20041;-64
2023/11/07 13:00:07;;;;;;;0.82;0.50;;;10.80;99.90;;;;;;5029495;28;20052;-64
2023/11/07 13:02:39;;;;;;;0.90;0.50;;;10.80;99.90;;;;;;5036656;28;20106;-64
2023/11/07 13:05:12;;;;;;;1.05;0.40;;;10.90;99.90;;;;;;5034013;28;20041;-64
2023/11/07 13:07:44;;;;;;;0.90;0.30;;;10.90;99.90;;;;;;5045180;28;20049;-64
2023/11/07 13:10:17;;;;;;;1.63;1.45;;;11.00;99.90;;;;;;5046987;28;20057;-64
2023/11/07 13:12:50;;;;;;;0.88;0.40;;;11.20;99.90;;;;;;5034295;28;20045;-64
2023/11/07 13:15:17;;;;;;;1.13;0.40;;;11.30;99.90;;;;;;5029324;28;20041;-64
2023/11/07 13:17:57;;;;;;;5.15;0.70;;;11.40;99.90;;;;;;5032079;28;20056;-64
2023/11/07 13:20:33;;;;;;;0.40;0.30;;;11.40;99.90;;;;;;5042430;28;20041;-64
2023/11/07 13:23:05;;;;;;;0.45;0.35;;;11.40;99.90;;;;;;5026288;28;20115;-64